Time;durP1;ratioP1;P1;durP2;ratioP2;P2;SDS_P1;SDS_P2;PMS_P1;PMS_P2;Temp;Humidity;BMP_temperature;BMP_pressure;BME280_temperature;BME280_humidity;BME280_pressure;Samples;Min_cycle;Max_cycle;Signal;HPM_P1;HPM_P2
2022/10/20 00:03:55;;;;;;;3.70;1.80;;;;;;;10.39;57.32;100023.25;224245;1248;139626;-64
2022/10/20 00:09:01;;;;;;;4.60;1.50;;;;;;;10.30;57.53;100031.65;224928;1245;139175;-61
2022/10/20 00:14:04;;;;;;;2.90;1.60;;;;;;;10.21;57.73;100028.84;224219;1247;139928;-63
2022/10/20 00:19:08;;;;;;;3.70;1.80;;;;;;;10.11;57.58;100032.61;224183;1251;139931;-62
2022/10/20 00:24:11;;;;;;;4.10;1.70;;;;;;;10.03;57.65;100036.55;224227;1248;140142;-62
2022/10/20 00:29:14;;;;;;;4.30;1.90;;;;;;;10.00;57.89;100044.13;224218;1248;139186;-61
2022/10/20 00:34:17;;;;;;;4.00;1.80;;;;;;;10.02;57.76;100044.58;224227;1248;140151;-61
2022/10/20 00:39:20;;;;;;;7.10;1.80;;;;;;;10.00;57.91;100043.73;224944;1244;139562;-62
2022/10/20 00:44:45;;;;;;;5.30;2.00;;;;;;;9.91;57.62;100040.75;224140;1245;138906;-63
2022/10/20 00:49:49;;;;;;;6.50;2.00;;;;;;;9.81;57.96;100042.09;224924;1241;139027;-61
2022/10/20 00:54:52;;;;;;;4.60;2.00;;;;;;;9.72;58.22;100042.81;224238;1249;139720;-62
2022/10/20 00:59:55;;;;;;;3.50;1.80;;;;;;;9.63;58.32;100042.67;224997;1235;139173;-62
2022/10/20 01:04:58;;;;;;;9.00;2.30;;;;;;;9.57;58.38;100039.21;224243;1251;139205;-62
2022/10/20 01:10:03;;;;;;;4.10;1.90;;;;;;;9.54;58.63;100038.27;224869;1240;140267;-59
2022/10/20 01:15:15;;;;;;;6.00;2.30;;;;;;;9.54;58.36;100035.64;224216;1241;139869;-58
2022/10/20 01:20:59;;;;;;;9.60;2.70;;;;;;;9.51;58.80;100036.97;224263;1252;139285;-60
2022/10/20 01:26:16;;;;;;;5.70;2.60;;;;;;;9.50;58.88;100031.73;224273;1248;138893;-62
2022/10/20 01:31:28;;;;;;;9.00;2.40;;;;;;;9.46;59.05;100031.52;224980;1231;139274;-61
2022/10/20 01:37:01;;;;;;;6.00;2.60;;;;;;;9.41;59.03;100034.92;224219;1248;142293;-63
2022/10/20 01:42:14;;;;;;;4.10;2.80;;;;;;;9.35;58.94;100036.23;224173;1255;139144;-62
2022/10/20 01:47:19;;;;;;;3.60;2.60;;;;;;;9.24;59.00;100038.79;224135;1244;139457;-66
2022/10/20 01:52:23;;;;;;;10.50;2.50;;;;;;;9.15;59.21;100040.77;224126;1248;139173;-63
2022/10/20 01:57:32;;;;;;;6.70;2.70;;;;;;;9.06;59.40;100033.69;224244;1250;139371;-63
2022/10/20 02:03:01;;;;;;;4.10;2.60;;;;;;;8.97;59.47;100031.20;224186;1244;138934;-61
2022/10/20 02:08:07;;;;;;;4.80;2.50;;;;;;;8.88;59.57;100035.29;224273;1251;140376;-62
2022/10/20 02:13:11;;;;;;;5.40;2.80;;;;;;;8.82;59.68;100037.46;224180;1251;141115;-62
2022/10/20 02:18:19;;;;;;;13.20;3.60;;;;;;;8.77;59.86;100033.75;224243;1247;140200;-58
2022/10/20 02:23:22;;;;;;;9.00;3.50;;;;;;;8.79;60.07;100034.39;224224;1248;139978;-58
2022/10/20 02:28:27;;;;;;;20.00;3.60;;;;;;;8.83;60.10;100032.80;224130;1251;140342;-58
2022/10/20 02:33:31;;;;;;;11.10;3.60;;;;;;;8.85;60.10;100034.86;224202;1245;140691;-61
2022/10/20 02:38:33;;;;;;;12.00;3.70;;;;;;;8.84;60.13;100034.92;224920;1235;139730;-62
2022/10/20 02:43:37;;;;;;;14.00;4.00;;;;;;;8.79;59.98;100038.98;224318;1248;139229;-62
2022/10/20 02:48:40;;;;;;;14.10;3.70;;;;;;;8.72;59.95;100039.94;224257;1251;138951;-62
2022/10/20 02:53:43;;;;;;;10.70;3.30;;;;;;;8.68;60.16;100034.97;224220;1251;139300;-64
2022/10/20 02:58:47;;;;;;;62.90;46.50;;;;;;;8.63;60.20;100038.17;224179;1251;139429;-63
2022/10/20 03:03:58;;;;;;;17.00;8.00;;;;;;;8.61;60.50;100041.59;224873;1244;140509;-61
2022/10/20 03:09:02;;;;;;;9.60;4.30;;;;;;;8.62;60.37;100050.06;224900;1244;139289;-61
2022/10/20 03:14:05;;;;;;;7.10;3.80;;;;;;;8.56;60.29;100055.61;224892;1243;139873;-62
2022/10/20 03:19:08;;;;;;;84.10;53.40;;;;;;;8.49;60.36;100059.75;224160;1241;140047;-62
2022/10/20 03:24:14;;;;;;;10.50;4.50;;;;;;;8.48;60.59;100060.30;224361;1244;139052;-63
2022/10/20 03:29:16;;;;;;;9.40;3.50;;;;;;;8.49;60.38;100068.92;224302;1251;139562;-65
2022/10/20 03:34:19;;;;;;;12.50;4.30;;;;;;;8.50;60.40;100075.44;224966;1241;140131;-63
2022/10/20 03:39:22;;;;;;;9.80;4.00;;;;;;;8.51;60.41;100076.84;224204;1251;139217;-65
2022/10/20 03:44:25;;;;;;;28.30;19.50;;;;;;;8.45;60.35;100083.42;224977;1243;139365;-62
2022/10/20 03:49:30;;;;;;;12.20;4.90;;;;;;;8.43;60.63;100085.27;224999;1244;140656;-63
2022/10/20 03:54:35;;;;;;;11.40;4.40;;;;;;;8.39;60.31;100088.94;224951;1237;139796;-62
2022/10/20 03:59:38;;;;;;;8.30;3.80;;;;;;;8.33;60.23;100090.18;224858;1244;139252;-63
2022/10/20 04:04:40;;;;;;;20.10;8.50;;;;;;;8.25;60.47;100095.77;224170;1245;138893;-62
2022/10/20 04:09:43;;;;;;;9.20;3.70;;;;;;;8.20;60.52;100094.54;224997;1237;139224;-61
2022/10/20 04:14:47;;;;;;;19.20;4.40;;;;;;;8.10;60.33;100092.45;224245;1247;139875;-62
2022/10/20 04:19:50;;;;;;;11.70;4.50;;;;;;;7.97;60.40;100090.73;224238;1248;139336;-62
2022/10/20 04:24:53;;;;;;;9.90;4.80;;;;;;;7.85;60.58;100090.98;224299;1251;140014;-62
2022/10/20 04:29:56;;;;;;;22.10;4.70;;;;;;;7.78;60.61;100093.34;224226;1251;140164;-63
2022/10/20 04:35:00;;;;;;;10.40;4.40;;;;;;;7.79;60.96;100098.23;224202;1248;139561;-61
2022/10/20 04:40:04;;;;;;;9.50;4.30;;;;;;;7.87;61.02;100095.89;224207;1249;139120;-59
2022/10/20 04:45:08;;;;;;;11.90;5.10;;;;;;;7.95;61.03;100092.42;224251;1248;139548;-60
2022/10/20 04:50:11;;;;;;;10.40;4.90;;;;;;;7.97;60.89;100092.52;224155;1242;139623;-59
2022/10/20 04:55:14;;;;;;;9.60;5.00;;;;;;;7.95;60.91;100092.77;224254;1245;139490;-59
2022/10/20 05:00:17;;;;;;;11.00;5.10;;;;;;;7.92;60.95;100094.30;224958;1252;139272;-61
2022/10/20 05:05:20;;;;;;;11.00;5.20;;;;;;;7.87;60.97;100090.76;224167;1255;138548;-61
2022/10/20 05:10:23;;;;;;;14.70;5.10;;;;;;;7.83;61.05;100098.66;224294;1251;139362;-59
2022/10/20 05:15:26;;;;;;;12.60;5.30;;;;;;;7.77;61.15;100105.02;224940;1244;138866;-60
2022/10/20 05:20:29;;;;;;;14.60;5.30;;;;;;;7.74;60.99;100106.72;224137;1248;139642;-59
2022/10/20 05:25:43;;;;;;;12.10;5.30;;;;;;;7.70;61.32;100108.44;224207;1250;139680;-61
2022/10/20 05:30:46;;;;;;;16.60;5.50;;;;;;;7.69;61.40;100114.83;225004;1245;139489;-59
2022/10/20 05:35:49;;;;;;;15.70;5.50;;;;;;;7.66;61.22;100121.64;224347;1243;139355;-60
2022/10/20 05:40:51;;;;;;;16.70;6.80;;;;;;;7.67;61.28;100125.33;224283;1250;139733;-62
2022/10/20 05:45:54;;;;;;;17.50;5.90;;;;;;;7.73;61.55;100124.92;224179;1252;139791;-62
2022/10/20 05:51:16;;;;;;;18.10;5.70;;;;;;;7.77;61.40;100130.46;224091;1251;139987;-62
2022/10/20 05:56:20;;;;;;;10.70;5.70;;;;;;;7.79;61.70;100131.11;224240;1252;139537;-60
2022/10/20 06:01:46;;;;;;;21.20;5.70;;;;;;;7.85;61.91;100134.46;224246;1246;138992;-62
2022/10/20 06:06:51;;;;;;;12.40;6.10;;;;;;;7.89;61.90;100141.04;224265;1244;140288;-61
2022/10/20 06:11:54;;;;;;;14.00;6.20;;;;;;;7.91;61.89;100142.03;224975;1244;139095;-62
2022/10/20 06:16:57;;;;;;;6.90;4.90;;;;;;;7.94;61.90;100144.91;224925;1242;139433;-62
2022/10/20 06:22:00;;;;;;;11.30;5.40;;;;;;;8.00;61.99;100149.85;224781;1238;139376;-62
2022/10/20 06:27:08;;;;;;;9.60;4.90;;;;;;;8.07;62.27;100146.44;224212;1251;138855;-63
2022/10/20 06:32:11;;;;;;;8.20;5.50;;;;;;;8.14;62.28;100149.19;224831;1237;139011;-60
2022/10/20 06:37:19;;;;;;;21.30;11.10;;;;;;;8.20;62.06;100154.83;224257;1248;139163;-60
2022/10/20 06:42:25;;;;;;;13.20;5.50;;;;;;;8.29;62.05;100157.68;224905;1249;140202;-61
2022/10/20 06:47:29;;;;;;;12.80;5.60;;;;;;;8.44;62.24;100152.23;224204;1255;139782;-61
2022/10/20 06:52:32;;;;;;;9.60;4.60;;;;;;;8.57;62.35;100150.19;224977;1241;139670;-61
2022/10/20 06:57:35;;;;;;;11.00;5.20;;;;;;;8.70;62.31;100145.31;224923;1243;139000;-62
2022/10/20 07:02:38;;;;;;;14.80;5.40;;;;;;;8.83;62.35;100148.02;224159;1252;139571;-64
2022/10/20 07:07:41;;;;;;;10.70;4.90;;;;;;;8.96;62.22;100153.00;224909;1237;139386;-61
2022/10/20 07:12:45;;;;;;;10.60;4.60;;;;;;;9.07;62.13;100152.05;224352;1249;139525;-63
2022/10/20 07:17:48;;;;;;;9.40;6.00;;;;;;;9.16;61.78;100149.44;224304;1251;139805;-62
2022/10/20 07:22:50;;;;;;;11.30;7.40;;;;;;;9.22;61.75;100144.95;224260;1246;139137;-62
2022/10/20 07:27:53;;;;;;;10.10;6.70;;;;;;;9.32;61.63;100143.50;224287;1252;140054;-63
2022/10/20 07:32:56;;;;;;;16.50;8.10;;;;;;;9.41;61.71;100145.07;224184;1255;140782;-63
2022/10/20 07:38:00;;;;;;;18.20;9.80;;;;;;;9.49;61.64;100139.44;224303;1251;140053;-63
2022/10/20 07:43:03;;;;;;;24.20;10.10;;;;;;;9.60;61.59;100142.03;224214;1252;139606;-62
2022/10/20 07:48:08;;;;;;;25.20;9.30;;;;;;;9.70;61.62;100131.52;224248;1243;140886;-61
2022/10/20 07:53:11;;;;;;;24.20;8.90;;;;;;;9.81;61.46;100125.77;224890;1244;139481;-62
2022/10/20 07:58:14;;;;;;;16.10;6.80;;;;;;;9.90;61.24;100129.27;224206;1241;139353;-63
2022/10/20 08:03:17;;;;;;;10.00;6.00;;;;;;;9.97;61.02;100132.16;224210;1248;140084;-62
2022/10/20 08:08:20;;;;;;;11.10;5.60;;;;;;;10.07;60.88;100135.65;225000;1244;139208;-62
2022/10/20 08:13:25;;;;;;;8.20;5.20;;;;;;;10.15;60.76;100140.63;224287;1249;140022;-62
2022/10/20 08:18:28;;;;;;;6.80;4.00;;;;;;;10.25;60.76;100138.09;224941;1244;139727;-61
2022/10/20 08:23:42;;;;;;;7.30;4.30;;;;;;;10.36;60.53;100141.55;224933;1242;140379;-62
2022/10/20 08:28:46;;;;;;;8.70;3.80;;;;;;;10.46;60.47;100142.34;224269;1257;139269;-61
2022/10/20 08:33:49;;;;;;;9.80;4.90;;;;;;;10.52;60.21;100144.73;224960;1245;139678;-62
2022/10/20 08:38:57;;;;;;;8.70;5.30;;;;;;;10.61;59.92;100147.33;224290;1252;139867;-63
2022/10/20 08:44:07;;;;;;;10.40;4.70;;;;;;;10.72;60.02;100150.06;224185;1252;139478;-62
2022/10/20 08:49:28;;;;;;;10.20;5.60;;;;;;;10.80;59.50;100147.75;224153;1251;139615;-62
2022/10/20 08:54:33;;;;;;;10.80;5.80;;;;;;;10.89;59.24;100149.11;224164;1252;139723;-63
2022/10/20 08:59:37;;;;;;;7.50;4.60;;;;;;;10.97;59.09;100146.98;224246;1251;139600;-61
2022/10/20 09:04:59;;;;;;;106.60;59.40;;;;;;;11.08;58.80;100147.17;224908;1250;139365;-60
2022/10/20 09:10:24;;;;;;;16.30;7.80;;;;;;;11.22;59.07;100138.19;224858;1240;140026;-63
2022/10/20 09:15:28;;;;;;;12.70;7.10;;;;;;;11.36;58.38;100135.58;224230;1251;139829;-62
2022/10/20 09:20:37;;;;;;;20.20;7.40;;;;;;;11.43;58.61;100124.04;224868;1244;139252;-63
2022/10/20 09:25:42;;;;;;;14.40;5.70;;;;;;;11.50;58.60;100114.98;224931;1241;139717;-63
2022/10/20 09:30:45;;;;;;;9.50;5.10;;;;;;;11.58;58.59;100114.79;224284;1248;139195;-63
2022/10/20 09:35:49;;;;;;;11.90;6.40;;;;;;;11.68;58.26;100112.67;224880;1244;139171;-63
2022/10/20 09:41:12;;;;;;;10.10;3.10;;;;;;;11.83;58.12;100111.06;224132;1252;139179;-64
2022/10/20 09:46:20;;;;;;;4.90;2.20;;;;;;;11.92;57.66;100110.82;224932;1248;140623;-63
2022/10/20 09:51:26;;;;;;;4.50;2.40;;;;;;;11.97;57.31;100105.05;224148;1254;139363;-63
2022/10/20 09:56:32;;;;;;;13.20;4.40;;;;;;;12.02;56.84;100106.89;224160;1252;139252;-63
2022/10/20 10:02:00;;;;;;;6.10;2.20;;;;;;;12.12;56.39;100099.48;224895;1244;139801;-63
2022/10/20 10:07:25;;;;;;;7.90;4.30;;;;;;;12.22;56.13;100096.45;224941;1244;140216;-64
2022/10/20 10:12:30;;;;;;;4.30;2.70;;;;;;;12.30;55.93;100093.77;224945;1241;139156;-62
2022/10/20 10:17:38;;;;;;;2.90;2.10;;;;;;;12.41;55.95;100097.41;224177;1249;139518;-62
2022/10/20 10:22:42;;;;;;;3.70;2.30;;;;;;;12.57;55.52;100095.89;224219;1257;139428;-62
2022/10/20 10:28:32;;;;;;;4.90;1.90;;;;;;;12.66;55.10;100089.17;224201;1248;139566;-62
2022/10/20 10:33:35;;;;;;;2.90;1.60;;;;;;;12.75;55.26;100086.18;224179;1251;140384;-61
2022/10/20 10:38:38;;;;;;;2.80;1.70;;;;;;;12.84;54.66;100081.42;224854;1244;139471;-62
2022/10/20 10:43:47;;;;;;;3.10;1.80;;;;;;;12.93;54.08;100077.00;224865;1250;140249;-60
2022/10/20 10:49:15;;;;;;;5.10;1.70;;;;;;;12.97;53.98;100073.54;224232;1251;139503;-60
2022/10/20 10:54:47;;;;;;;3.80;1.60;;;;;;;13.03;53.82;100068.79;224880;1247;139498;-60
2022/10/20 10:59:51;;;;;;;2.70;1.40;;;;;;;13.04;53.44;100064.63;224209;1249;139680;-60
2022/10/20 11:05:31;;;;;;;2.80;1.80;;;;;;;13.08;53.38;100062.13;224218;1251;139731;-62
2022/10/20 11:11:19;;;;;;;2.70;1.40;;;;;;;13.05;53.05;100055.00;224684;1244;139446;-61
2022/10/20 11:16:34;;;;;;;2.30;0.90;;;;;;;13.10;52.94;100052.54;224782;1241;139224;-63
2022/10/20 11:22:00;;;;;;;3.60;0.90;;;;;;;13.13;52.13;100047.18;224202;1254;139240;-64
2022/10/20 11:27:10;;;;;;;4.10;1.10;;;;;;;13.12;52.07;100035.19;224168;1252;139459;-63
2022/10/20 11:32:13;;;;;;;2.90;0.90;;;;;;;13.12;51.78;100027.50;224171;1252;139271;-61
2022/10/20 11:37:19;;;;;;;4.70;1.20;;;;;;;13.15;51.73;100020.19;224202;1247;140200;-61
2022/10/20 11:42:56;;;;;;;2.00;1.00;;;;;;;13.22;51.65;100010.54;224212;1256;139183;-60
2022/10/20 11:48:12;;;;;;;2.10;1.30;;;;;;;13.31;51.30;100006.13;224827;1241;139158;-60
2022/10/20 11:53:47;;;;;;;3.00;1.10;;;;;;;13.38;50.98;100001.77;224884;1244;139201;-62
2022/10/20 11:59:06;;;;;;;2.30;1.40;;;;;;;13.41;51.10;99992.86;224977;1241;139098;-60
2022/10/20 12:04:32;;;;;;;2.20;1.40;;;;;;;13.42;50.98;99988.91;224918;1244;138755;-60
2022/10/20 12:09:51;;;;;;;1.50;1.10;;;;;;;13.44;50.69;99981.31;224187;1252;138665;-61
2022/10/20 12:15:00;;;;;;;4.40;1.40;;;;;;;13.40;50.56;99976.55;224229;1251;139785;-62
2022/10/20 12:20:36;;;;;;;1.80;1.20;;;;;;;13.42;50.69;99969.27;224318;1244;139953;-59
2022/10/20 12:25:40;;;;;;;1.70;1.00;;;;;;;13.44;50.41;99965.75;224634;1247;139915;-62
2022/10/20 12:30:53;;;;;;;2.60;0.90;;;;;;;13.43;50.19;99962.08;224181;1246;139356;-61
2022/10/20 12:35:59;;;;;;;3.80;0.90;;;;;;;13.46;50.19;99955.86;224245;1251;139150;-60
2022/10/20 12:41:03;;;;;;;2.00;1.50;;;;;;;13.48;49.89;99957.52;224149;1256;139171;-60
2022/10/20 12:46:10;;;;;;;3.10;1.70;;;;;;;13.56;49.70;99944.55;224213;1251;139547;-60
2022/10/20 12:51:29;;;;;;;1.60;0.90;;;;;;;13.59;49.38;99940.66;224150;1251;139571;-61
2022/10/20 12:56:39;;;;;;;1.60;0.90;;;;;;;13.64;49.47;99930.20;224196;1252;139430;-60
2022/10/20 13:02:09;;;;;;;2.60;0.90;;;;;;;13.66;49.05;99929.15;224298;1248;138961;-60
2022/10/20 13:07:13;;;;;;;2.30;1.00;;;;;;;13.74;49.05;99926.35;224301;1251;139732;-60
2022/10/20 13:12:27;;;;;;;2.50;1.20;;;;;;;13.82;49.11;99928.23;224148;1251;140937;-62
2022/10/20 13:17:47;;;;;;;4.40;1.20;;;;;;;13.80;49.00;99925.10;224167;1251;138926;-59
2022/10/20 13:22:52;;;;;;;2.70;1.20;;;;;;;13.77;48.86;99925.67;224176;1247;139066;-62
2022/10/20 13:28:05;;;;;;;;;;;;;;;13.70;48.90;99927.15;224842;1241;139261;-62
2022/10/20 13:33:28;;;;;;;4.60;2.00;;;;;;;13.70;49.24;99924.33;224192;1254;125198;-63
2022/10/20 13:38:59;;;;;;;4.00;2.20;;;;;;;13.67;49.27;99918.02;224915;1233;139064;-64
2022/10/20 13:44:31;;;;;;;4.80;1.50;;;;;;;13.61;48.94;99914.50;224826;1244;140249;-61
2022/10/20 13:49:46;;;;;;;2.40;1.40;;;;;;;13.55;48.85;99913.62;224105;1254;140126;-62
2022/10/20 13:54:55;;;;;;;2.50;1.50;;;;;;;13.48;48.67;99910.98;224205;1248;139442;-63
2022/10/20 14:00:15;;;;;;;4.00;1.90;;;;;;;13.43;48.61;99906.50;224186;1254;139785;-61
2022/10/20 14:05:20;;;;;;;3.00;1.20;;;;;;;13.37;48.47;99903.45;224847;1244;139846;-60
2022/10/20 14:10:32;;;;;;;2.30;1.30;;;;;;;13.32;48.56;99902.33;224761;1244;139077;-62
2022/10/20 14:15:36;;;;;;;1.90;1.50;;;;;;;13.25;48.40;99897.93;224052;1251;139285;-62
2022/10/20 14:20:40;;;;;;;4.60;2.10;;;;;;;13.26;48.71;99898.78;224716;1244;139877;-62
2022/10/20 14:25:44;;;;;;;3.80;1.50;;;;;;;13.24;48.71;99893.16;224016;1251;138954;-63
2022/10/20 14:30:49;;;;;;;2.60;1.50;;;;;;;13.20;48.80;99892.80;224069;1248;139641;-60
2022/10/20 14:35:55;;;;;;;3.60;1.50;;;;;;;13.16;48.75;99890.92;224136;1252;138969;-64
2022/10/20 14:40:58;;;;;;;3.90;1.90;;;;;;;13.12;49.13;99886.54;224815;1244;139730;-62
2022/10/20 14:46:03;;;;;;;5.20;1.40;;;;;;;13.08;49.06;99879.67;224796;1244;138929;-61
2022/10/20 14:51:25;;;;;;;2.70;1.40;;;;;;;13.02;49.09;99881.56;224140;1243;139365;-62
2022/10/20 14:56:29;;;;;;;3.30;1.60;;;;;;;12.97;48.86;99881.04;224697;1237;139020;-60
2022/10/20 15:01:32;;;;;;;4.80;1.60;;;;;;;12.91;48.88;99879.02;224836;1243;139276;-61
2022/10/20 15:06:35;;;;;;;2.80;1.70;;;;;;;12.85;48.86;99873.38;224846;1244;139357;-60
2022/10/20 15:11:39;;;;;;;6.60;2.30;;;;;;;12.79;48.87;99874.06;224217;1251;140320;-61
2022/10/20 15:16:46;;;;;;;9.40;2.30;;;;;;;12.72;48.68;99861.84;224823;1244;138967;-60
2022/10/20 15:21:59;;;;;;;5.00;2.80;;;;;;;12.64;48.88;99854.61;224169;1248;139229;-61
2022/10/20 15:27:03;;;;;;;7.00;3.00;;;;;;;12.56;48.67;99856.52;224838;1245;139025;-63
2022/10/20 15:32:07;;;;;;;7.70;4.00;;;;;;;12.46;48.64;99851.36;224181;1251;139433;-62
2022/10/20 15:37:10;;;;;;;13.10;6.40;;;;;;;12.44;49.29;99849.69;224160;1251;139153;-61
2022/10/20 15:42:13;;;;;;;11.70;7.10;;;;;;;12.51;49.19;99840.23;224823;1236;139256;-62
2022/10/20 15:47:16;;;;;;;12.80;7.80;;;;;;;12.39;48.66;99835.75;224143;1252;139266;-63
2022/10/20 15:52:20;;;;;;;15.30;8.60;;;;;;;12.22;48.70;99835.79;224162;1251;141046;-62
2022/10/20 15:57:23;;;;;;;11.20;7.30;;;;;;;12.08;48.78;99830.38;224111;1245;139315;-60
2022/10/20 16:02:26;;;;;;;12.50;8.00;;;;;;;11.97;48.82;99835.08;224849;1244;139295;-60
2022/10/20 16:07:29;;;;;;;15.20;8.60;;;;;;;11.86;48.90;99833.01;224784;1244;139204;-63
2022/10/20 16:12:32;;;;;;;15.70;8.80;;;;;;;11.77;49.11;99833.65;224785;1231;139821;-62
2022/10/20 16:17:36;;;;;;;12.80;7.20;;;;;;;11.69;49.35;99825.36;224882;1237;139882;-60
2022/10/20 16:22:39;;;;;;;10.60;6.80;;;;;;;11.59;49.43;99827.85;224156;1245;139273;-62
2022/10/20 16:27:42;;;;;;;9.60;6.20;;;;;;;11.50;49.55;99832.77;224151;1245;139307;-60
2022/10/20 16:32:45;;;;;;;13.00;6.30;;;;;;;11.42;49.44;99840.33;224890;1244;139574;-61
2022/10/20 16:37:48;;;;;;;9.40;6.20;;;;;;;11.34;49.75;99846.55;224829;1244;139296;-60
2022/10/20 16:42:52;;;;;;;9.50;6.00;;;;;;;11.27;49.94;99848.17;224101;1246;139119;-64
2022/10/20 16:47:54;;;;;;;9.20;5.70;;;;;;;11.18;50.00;99852.59;224197;1244;139682;-62
2022/10/20 16:52:58;;;;;;;9.00;5.40;;;;;;;11.09;50.20;99851.07;224170;1248;139852;-60
2022/10/20 16:58:01;;;;;;;14.20;8.70;;;;;;;10.99;50.19;99853.20;224828;1230;139059;-63
2022/10/20 17:03:04;;;;;;;11.00;5.00;;;;;;;10.89;50.47;99856.85;224130;1252;139251;-61
2022/10/20 17:08:07;;;;;;;11.30;5.30;;;;;;;10.81;50.48;99856.02;224147;1251;139297;-62
2022/10/20 17:13:10;;;;;;;9.90;5.20;;;;;;;10.75;50.70;99855.46;224078;1245;139536;-59
2022/10/20 17:18:13;;;;;;;9.70;6.20;;;;;;;10.69;50.83;99855.95;224233;1251;139579;-62
2022/10/20 17:23:16;;;;;;;13.40;6.80;;;;;;;10.63;50.76;99848.91;224002;1246;139151;-64
2022/10/20 17:28:19;;;;;;;14.20;8.70;;;;;;;10.58;50.73;99846.36;224253;1239;139283;-60
2022/10/20 17:33:26;;;;;;;13.80;8.70;;;;;;;10.52;50.60;99856.39;224885;1244;139769;-60
2022/10/20 17:38:30;;;;;;;16.90;9.40;;;;;;;10.46;51.05;99856.52;224152;1248;139288;-63
2022/10/20 17:43:33;;;;;;;13.10;8.60;;;;;;;10.41;51.04;99859.79;224885;1240;141011;-61
2022/10/20 17:48:37;;;;;;;14.50;8.40;;;;;;;10.33;51.01;99853.05;224741;1244;139844;-61
2022/10/20 17:53:44;;;;;;;11.70;7.70;;;;;;;10.27;51.39;99849.97;224090;1251;140438;-62
2022/10/20 17:58:50;;;;;;;169.10;106.40;;;;;;;10.19;51.37;99846.60;224133;1244;139296;-63
2022/10/20 18:03:55;;;;;;;20.40;12.10;;;;;;;10.19;51.71;99850.70;224847;1240;139374;-62
2022/10/20 18:09:01;;;;;;;14.90;8.00;;;;;;;10.14;51.72;99849.13;224847;1235;140005;-59
2022/10/20 18:14:04;;;;;;;;;;;;;;;10.10;51.66;99844.19;224916;1243;139505;-62
2022/10/20 18:19:11;;;;;;;14.70;7.50;;;;;;;10.03;51.89;99839.39;224902;1244;125401;-60
2022/10/20 18:24:16;;;;;;;12.40;8.40;;;;;;;9.96;51.75;99839.34;224103;1251;139419;-61
2022/10/20 18:29:19;;;;;;;14.80;8.60;;;;;;;9.90;51.88;99832.53;224881;1235;140345;-61
2022/10/20 18:34:22;;;;;;;10.80;6.90;;;;;;;9.82;51.90;99831.31;224143;1251;139657;-62
2022/10/20 18:39:26;;;;;;;10.80;7.00;;;;;;;9.76;52.19;99833.39;224075;1248;140119;-61
2022/10/20 18:44:29;;;;;;;12.80;6.80;;;;;;;9.67;52.16;99833.76;224064;1244;138875;-61
2022/10/20 18:49:33;;;;;;;16.30;7.30;;;;;;;9.63;52.25;99828.99;224259;1251;139056;-61
2022/10/20 18:54:35;;;;;;;14.00;7.60;;;;;;;9.58;52.59;99828.35;224211;1251;139077;-62
2022/10/20 18:59:39;;;;;;;12.80;7.70;;;;;;;9.53;52.53;99820.77;224125;1252;139451;-63
2022/10/20 19:04:42;;;;;;;15.60;8.30;;;;;;;9.47;52.54;99817.50;224201;1243;139256;-61
2022/10/20 19:09:45;;;;;;;13.30;8.40;;;;;;;9.43;52.68;99815.00;224193;1244;139997;-62
2022/10/20 19:14:50;;;;;;;12.40;8.70;;;;;;;9.40;52.69;99813.21;224204;1243;138986;-61
2022/10/20 19:19:53;;;;;;;16.70;8.60;;;;;;;9.36;52.79;99813.22;224193;1237;138699;-60
2022/10/20 19:24:56;;;;;;;15.70;9.30;;;;;;;9.31;52.81;99807.81;224883;1244;138957;-61
2022/10/20 19:30:00;;;;;;;28.00;18.80;;;;;;;9.28;53.12;99810.77;224171;1244;139815;-60
2022/10/20 19:35:04;;;;;;;16.80;10.10;;;;;;;9.28;53.12;99803.33;224212;1251;139326;-63
2022/10/20 19:40:08;;;;;;;16.70;10.20;;;;;;;9.22;53.12;99800.02;224177;1251;140060;-60
2022/10/20 19:45:11;;;;;;;14.00;9.80;;;;;;;9.17;53.16;99801.14;224147;1238;139496;-61
2022/10/20 19:50:14;;;;;;;18.10;9.70;;;;;;;9.11;53.31;99807.04;224224;1251;139497;-62
2022/10/20 19:55:30;;;;;;;18.70;10.50;;;;;;;9.07;53.40;99810.79;224819;1243;139301;-62
2022/10/20 20:00:44;;;;;;;16.80;10.20;;;;;;;9.01;53.42;99807.12;224162;1243;138889;-63
2022/10/20 20:06:18;;;;;;;18.60;11.40;;;;;;;8.92;53.42;99798.65;223933;1245;139758;-65
2022/10/20 20:11:30;;;;;;;19.60;10.60;;;;;;;8.84;53.73;99797.96;224694;1243;139418;-64
2022/10/20 20:16:44;;;;;;;17.60;10.30;;;;;;;8.76;53.86;99798.67;224713;1241;138960;-63
2022/10/20 20:22:01;;;;;;;17.00;11.20;;;;;;;8.69;54.14;99798.05;224863;1241;139120;-62
2022/10/20 20:27:09;;;;;;;17.70;10.90;;;;;;;8.66;54.18;99796.08;223994;1241;139141;-63
2022/10/20 20:32:16;;;;;;;17.20;11.10;;;;;;;8.61;54.28;99792.72;224111;1248;140091;-63
2022/10/20 20:37:25;;;;;;;19.80;12.00;;;;;;;8.56;54.35;99792.61;223991;1248;138861;-62
2022/10/20 20:42:30;;;;;;;16.90;11.20;;;;;;;8.54;54.43;99791.10;224091;1251;139540;-62
2022/10/20 20:47:45;;;;;;;48.90;32.70;;;;;;;8.51;54.82;99782.38;224079;1241;139994;-61
2022/10/20 20:53:07;;;;;;;18.70;12.50;;;;;;;8.56;55.06;99772.99;224722;1244;139295;-61
2022/10/20 20:58:17;;;;;;;15.40;10.40;;;;;;;8.55;54.89;99764.71;223660;1246;139087;-62
2022/10/20 21:03:20;;;;;;;20.50;12.90;;;;;;;8.50;54.75;99763.49;224032;1248;141052;-63
2022/10/20 21:08:24;;;;;;;21.40;12.90;;;;;;;8.44;54.82;99761.42;224733;1249;139596;-62
2022/10/20 21:13:34;;;;;;;44.90;28.40;;;;;;;8.41;55.11;99769.00;224031;1243;139347;-63
2022/10/20 21:18:41;;;;;;;23.50;13.10;;;;;;;8.48;55.52;99764.45;224062;1245;138983;-63
2022/10/20 21:23:44;;;;;;;23.50;13.00;;;;;;;8.42;55.00;99759.58;224735;1239;138738;-63
2022/10/20 21:28:48;;;;;;;22.50;13.50;;;;;;;8.29;55.25;99745.77;224041;1252;140017;-62
2022/10/20 21:33:59;;;;;;;22.60;14.00;;;;;;;8.19;55.31;99747.58;224764;1238;139184;-62
2022/10/20 21:39:05;;;;;;;19.50;13.40;;;;;;;8.12;55.41;99739.03;224755;1245;140137;-61
2022/10/20 21:44:10;;;;;;;20.00;13.10;;;;;;;8.03;55.52;99733.55;224011;1255;139011;-63
2022/10/20 21:49:18;;;;;;;20.80;13.30;;;;;;;7.97;55.73;99724.64;224108;1238;139594;-62
2022/10/20 21:54:24;;;;;;;23.70;13.90;;;;;;;7.93;55.90;99716.84;224127;1246;139643;-62
2022/10/20 21:59:29;;;;;;;21.20;12.80;;;;;;;7.91;56.04;99720.11;224774;1245;139098;-63
2022/10/20 22:04:32;;;;;;;23.50;13.60;;;;;;;7.85;56.09;99719.80;223997;1244;139290;-63
2022/10/20 22:09:35;;;;;;;24.70;13.70;;;;;;;7.80;55.96;99715.95;224840;1243;138670;-62
2022/10/20 22:14:38;;;;;;;20.60;13.40;;;;;;;7.76;56.23;99704.98;223792;1251;139521;-63
2022/10/20 22:19:49;;;;;;;20.50;12.90;;;;;;;7.73;56.38;99698.54;223982;1247;139179;-63
2022/10/20 22:24:58;;;;;;;21.90;13.40;;;;;;;7.71;56.38;99694.77;223936;1254;139246;-62
2022/10/20 22:30:07;;;;;;;21.90;13.60;;;;;;;7.67;56.45;99693.14;223981;1250;139426;-63
2022/10/20 22:35:10;;;;;;;22.60;14.00;;;;;;;7.62;56.55;99699.00;224589;1238;139435;-63
2022/10/20 22:40:13;;;;;;;23.30;14.50;;;;;;;7.59;56.60;99688.34;223931;1255;139981;-62
2022/10/20 22:45:16;;;;;;;24.50;14.50;;;;;;;7.54;56.47;99687.48;223913;1247;139430;-63
2022/10/20 22:50:19;;;;;;;21.60;14.80;;;;;;;7.48;56.72;99682.23;223813;1244;138839;-62
2022/10/20 22:55:22;;;;;;;23.60;14.50;;;;;;;7.44;56.81;99676.40;223932;1246;139162;-62
2022/10/20 23:00:25;;;;;;;26.10;14.00;;;;;;;7.40;56.99;99677.44;223945;1254;139616;-62
2022/10/20 23:05:28;;;;;;;26.50;14.50;;;;;;;7.35;56.98;99678.70;223948;1245;139452;-62
2022/10/20 23:10:31;;;;;;;20.30;13.60;;;;;;;7.27;56.82;99673.86;224663;1244;141985;-62
2022/10/20 23:15:34;;;;;;;23.10;13.60;;;;;;;7.24;57.08;99676.63;223991;1257;139561;-63
2022/10/20 23:20:38;;;;;;;22.70;14.40;;;;;;;7.21;57.19;99676.73;223944;1256;139084;-62
2022/10/20 23:25:42;;;;;;;23.60;14.00;;;;;;;7.17;57.11;99671.77;223901;1251;140270;-61